Time;durP1;ratioP1;P1;durP2;ratioP2;P2;SDS_P1;SDS_P2;PMS_P1;PMS_P2;Temp;Humidity;BMP_temperature;BMP_pressure;BME280_temperature;BME280_humidity;BME280_pressure;Samples;Min_cycle;Max_cycle;Signal;HPM_P1;HPM_P2
2023/03/17 00:00:07;;;;;;;;;;;;;;;;;;7362372;19;878;-66
2023/03/17 00:02:40;;;;;;;;;;;;;;;;;;7362755;19;731;-66
2023/03/17 00:05:10;;;;;;;;;;;;;;;;;;7364670;19;1885;-65
2023/03/17 00:07:38;;;;;;;;;;;;;;;;;;7365297;19;1745;-66
2023/03/17 00:10:07;;;;;;;;;;;;;;;;;;7364638;19;825;-67
2023/03/17 00:12:35;;;;;;;;;;;;;;;;;;7363642;19;804;-66
2023/03/17 00:15:04;;;;;;;;;;;;;;;;;;7361683;19;1870;-65
2023/03/17 00:17:32;;;;;;;;;;;;;;;;;;7363962;19;926;-66
2023/03/17 00:20:00;;;;;;;;;;;;;;;;;;7362666;19;775;-67
2023/03/17 00:22:28;;;;;;;;;;;;;;;;;;7363956;19;872;-68
2023/03/17 00:24:57;;;;;;;;;;;;;;;;;;7361354;19;1278;-68
2023/03/17 00:27:25;;;;;;;;;;;;;;;;;;7366024;19;1521;-68
2023/03/17 00:29:53;;;;;;;;;;;;;;;;;;7365333;19;1867;-67
2023/03/17 00:32:21;;;;;;;;;;;;;;;;;;7363692;19;1894;-66
2023/03/17 00:34:52;;;;;;;;;;;;;;;;;;7361853;19;1885;-67
2023/03/17 00:37:21;;;;;;;;;;;;;;;;;;7363273;19;794;-67
2023/03/17 00:39:50;;;;;;;;;;;;;;;;;;7361840;19;904;-65
2023/03/17 00:42:19;;;;;;;;;;;;;;;;;;7362243;19;787;-66
2023/03/17 00:44:47;;;;;;;;;;;;;;;;;;7359755;19;1385;-66
2023/03/17 00:47:16;;;;;;;;;;;;;;;;;;7362399;19;863;-65
2023/03/17 00:49:44;;;;;;;;;;;;;;;;;;7360923;19;816;-65
2023/03/17 00:52:12;;;;;;;;;;;;;;;;;;7361638;19;843;-65
2023/03/17 00:54:42;;;;;;;;;;;;;;;;;;7359250;19;1860;-65
2023/03/17 00:57:11;;;;;;;;;;;;;;;;;;7361111;19;751;-65
2023/03/17 00:59:39;;;;;;;;;;;;;;;;;;7361201;19;812;-65
2023/03/17 01:02:11;;;;;;;;;;;;;;;;;;7363928;19;1873;-65
2023/03/17 01:04:40;;;;;;;;;;;;;;;;;;7358617;19;1293;-65
2023/03/17 01:07:10;;;;;;;;;;;;;;;;;;7362059;19;823;-64
2023/03/17 01:09:38;;;;;;;;;;;;;;;;;;7365558;19;1733;-65
2023/03/17 01:12:07;;;;;;;;;;;;;;;;;;7361119;19;867;-65
2023/03/17 01:14:36;;;;;;;;;;;;;;;;;;7361508;19;1845;-65
2023/03/17 01:17:04;;;;;;;;;;;;;;;;;;7369622;19;794;-64
2023/03/17 01:19:32;;;;;;;;;;;;;;;;;;7369149;19;762;-65
2023/03/17 01:22:02;;;;;;;;;;;;;;;;;;7367578;19;874;-68
2023/03/17 01:24:30;;;;;;;;;;;;;;;;;;7366636;19;1326;-65
2023/03/17 01:26:58;;;;;;;;;;;;;;;;;;7368264;19;870;-65
2023/03/17 01:29:27;;;;;;;;;;;;;;;;;;7370259;19;1831;-65
2023/03/17 01:31:55;;;;;;;;;;;;;;;;;;7366957;19;710;-65
2023/03/17 01:34:23;;;;;;;;;;;;;;;;;;7365611;19;1857;-64
2023/03/17 01:36:52;;;;;;;;;;;;;;;;;;7367611;19;842;-64
2023/03/17 01:39:20;;;;;;;;;;;;;;;;;;7367621;19;835;-67
2023/03/17 01:41:48;;;;;;;;;;;;;;;;;;7372359;19;1654;-65
2023/03/17 01:44:17;;;;;;;;;;;;;;;;;;7366632;19;1297;-65
2023/03/17 01:46:46;;;;;;;;;;;;;;;;;;7367482;19;846;-67
2023/03/17 01:49:14;;;;;;;;;;;;;;;;;;7368518;19;734;-67
2023/03/17 01:51:43;;;;;;;;;;;;;;;;;;7369662;19;751;-67
2023/03/17 01:54:11;;;;;;;;;;;;;;;;;;7370794;19;1862;-67
2023/03/17 01:56:40;;;;;;;;;;;;;;;;;;7379935;19;1799;-67
2023/03/17 01:59:09;;;;;;;;;;;;;;;;;;7377269;19;863;-66
2023/03/17 02:01:37;;;;;;;;;;;;;;;;;;7377992;19;805;-65
2023/03/17 02:04:05;;;;;;;;;;;;;;;;;;7374239;19;1290;-65
2023/03/17 02:06:34;;;;;;;;;;;;;;;;;;7377774;19;822;-67
2023/03/17 02:09:02;;;;;;;;;;;;;;;;;;7377827;19;860;-67
2023/03/17 02:11:30;;;;;;;;;;;;;;;;;;7380699;19;838;-67
2023/03/17 02:13:59;;;;;;;;;;;;;;;;;;7378999;19;1285;-67
2023/03/17 02:16:27;;;;;;;;;;;;;;;;;;7376172;19;1830;-65
2023/03/17 02:18:55;;;;;;;;;;;;;;;;;;7378023;19;700;-66
2023/03/17 02:21:24;;;;;;;;;;;;;;;;;;7378323;19;854;-67
2023/03/17 02:23:52;;;;;;;;;;;;;;;;;;7377795;19;1294;-67
2023/03/17 02:26:20;;;;;;;;;;;;;;;;;;7380347;19;1927;-66
2023/03/17 02:28:48;;;;;;;;;;;;;;;;;;7377228;19;814;-66
2023/03/17 02:31:16;;;;;;;;;;;;;;;;;;7373195;19;826;-67
2023/03/17 02:33:45;;;;;;;;;;;;;;;;;;7368234;19;1207;-65
2023/03/17 02:36:13;;;;;;;;;;;;;;;;;;7364053;19;1841;-65
2023/03/17 02:38:41;;;;;;;;;;;;;;;;;;7367374;19;844;-65
2023/03/17 02:41:09;;;;;;;;;;;;;;;;;;7367279;19;834;-65
2023/03/17 02:43:41;;;;;;;;;;;;;;;;;;7364264;19;1302;-65
2023/03/17 02:46:09;;;;;;;;;;;;;;;;;;7366615;19;807;-65
2023/03/17 02:48:38;;;;;;;;;;;;;;;;;;7365844;19;805;-65
2023/03/17 02:51:06;;;;;;;;;;;;;;;;;;7370223;19;1853;-65
2023/03/17 02:53:34;;;;;;;;;;;;;;;;;;7365189;19;1329;-65
2023/03/17 02:56:02;;;;;;;;;;;;;;;;;;7364519;19;1841;-65
2023/03/17 02:58:30;;;;;;;;;;;;;;;;;;7364408;19;790;-64
2023/03/17 03:00:58;;;;;;;;;;;;;;;;;;7366073;19;827;-66
2023/03/17 03:03:27;;;;;;;;;;;;;;;;;;7365204;19;1324;-64
2023/03/17 03:05:56;;;;;;;;;;;;;;;;;;7365593;19;918;-65
2023/03/17 03:08:25;;;;;;;;;;;;;;;;;;7365330;19;817;-64
2023/03/17 03:10:53;;;;;;;;;;;;;;;;;;7365069;19;809;-65
2023/03/17 03:13:21;;;;;;;;;;;;;;;;;;7364902;19;1285;-64
2023/03/17 03:15:50;;;;;;;;;;;;;;;;;;7364181;19;1858;-65
2023/03/17 03:18:18;;;;;;;;;;;;;;;;;;7365716;19;1861;-67
2023/03/17 03:20:46;;;;;;;;;;;;;;;;;;7365033;19;798;-65
2023/03/17 03:23:15;;;;;;;;;;;;;;;;;;7363390;19;1286;-65
2023/03/17 03:25:43;;;;;;;;;;;;;;;;;;7365341;19;842;-66
2023/03/17 03:28:11;;;;;;;;;;;;;;;;;;7365194;19;858;-65
2023/03/17 03:30:39;;;;;;;;;;;;;;;;;;7366376;19;1731;-65
2023/03/17 03:33:08;;;;;;;;;;;;;;;;;;7364599;19;1282;-65
2023/03/17 03:35:36;;;;;;;;;;;;;;;;;;7364483;19;1835;-64
2023/03/17 03:38:04;;;;;;;;;;;;;;;;;;7361054;19;798;-64
2023/03/17 03:40:33;;;;;;;;;;;;;;;;;;7364929;19;896;-64
2023/03/17 03:43:01;;;;;;;;;;;;;;;;;;7364054;19;1349;-65
2023/03/17 03:45:29;;;;;;;;;;;;;;;;;;7365141;19;849;-64
2023/03/17 03:47:57;;;;;;;;;;;;;;;;;;7364351;19;1851;-65
2023/03/17 03:50:26;;;;;;;;;;;;;;;;;;7364993;19;846;-64
2023/03/17 03:52:54;;;;;;;;;;;;;;;;;;7363778;19;1285;-64
2023/03/17 03:55:22;;;;;;;;;;;;;;;;;;7363447;19;1834;-65
2023/03/17 03:57:50;;;;;;;;;;;;;;;;;;7364397;19;1855;-64
2023/03/17 04:00:19;;;;;;;;;;;;;;;;;;7364605;19;839;-64
2023/03/17 04:02:47;;;;;;;;;;;;;;;;;;7364356;19;818;-65
2023/03/17 04:05:16;;;;;;;;;;;;;;;;;;7364461;19;853;-65
2023/03/17 04:07:44;;;;;;;;;;;;;;;;;;7363042;19;845;-65
2023/03/17 04:10:13;;;;;;;;;;;;;;;;;;7365059;19;1872;-65
2023/03/17 04:12:41;;;;;;;;;;;;;;;;;;7363236;19;806;-65
2023/03/17 04:15:10;;;;;;;;;;;;;;;;;;7360528;19;1854;-65
2023/03/17 04:17:38;;;;;;;;;;;;;;;;;;7363419;19;821;-65
2023/03/17 04:20:06;;;;;;;;;;;;;;;;;;7364041;19;793;-64
2023/03/17 04:22:34;;;;;;;;;;;;;;;;;;7363466;19;832;-65
2023/03/17 04:25:03;;;;;;;;;;;;;;;;;;7362052;19;1888;-65
2023/03/17 04:27:31;;;;;;;;;;;;;;;;;;7363714;19;877;-65
2023/03/17 04:30:00;;;;;;;;;;;;;;;;;;7361368;19;795;-65
2023/03/17 04:32:28;;;;;;;;;;;;;;;;;;7363042;19;783;-65
2023/03/17 04:34:57;;;;;;;;;;;;;;;;;;7360391;19;1857;-65
2023/03/17 04:37:25;;;;;;;;;;;;;;;;;;7363116;19;855;-65
2023/03/17 04:39:54;;;;;;;;;;;;;;;;;;7362146;19;790;-65
2023/03/17 04:42:22;;;;;;;;;;;;;;;;;;7366641;19;1872;-65
2023/03/17 04:44:50;;;;;;;;;;;;;;;;;;7360724;19;1282;-65
2023/03/17 04:47:19;;;;;;;;;;;;;;;;;;7363064;19;822;-65
2023/03/17 04:49:47;;;;;;;;;;;;;;;;;;7364635;19;765;-65
2023/03/17 04:52:15;;;;;;;;;;;;;;;;;;7369140;19;790;-65
2023/03/17 04:54:44;;;;;;;;;;;;;;;;;;7366297;19;1282;-65
2023/03/17 04:57:12;;;;;;;;;;;;;;;;;;7368558;19;1857;-65
2023/03/17 04:59:40;;;;;;;;;;;;;;;;;;7368234;19;810;-65
2023/03/17 05:02:08;;;;;;;;;;;;;;;;;;7369319;19;856;-65
2023/03/17 05:04:37;;;;;;;;;;;;;;;;;;7367772;19;1289;-65
2023/03/17 05:07:05;;;;;;;;;;;;;;;;;;7369398;19;789;-67
2023/03/17 05:09:33;;;;;;;;;;;;;;;;;;7368467;19;838;-64
2023/03/17 05:12:01;;;;;;;;;;;;;;;;;;7369025;19;841;-65
2023/03/17 05:14:30;;;;;;;;;;;;;;;;;;7368741;19;1956;-64
2023/03/17 05:16:58;;;;;;;;;;;;;;;;;;7367016;19;1854;-64
2023/03/17 05:19:26;;;;;;;;;;;;;;;;;;7367313;19;742;-65
2023/03/17 05:21:54;;;;;;;;;;;;;;;;;;7372789;19;1846;-65
2023/03/17 05:24:23;;;;;;;;;;;;;;;;;;7366375;19;1235;-65
2023/03/17 05:26:51;;;;;;;;;;;;;;;;;;7368641;19;821;-65
2023/03/17 05:29:19;;;;;;;;;;;;;;;;;;7368096;19;825;-65
2023/03/17 05:31:47;;;;;;;;;;;;;;;;;;7372595;19;1356;-64
2023/03/17 05:34:16;;;;;;;;;;;;;;;;;;7366890;19;1325;-65
2023/03/17 05:36:45;;;;;;;;;;;;;;;;;;7366471;19;1846;-65
2023/03/17 05:39:13;;;;;;;;;;;;;;;;;;7367347;19;831;-64
2023/03/17 05:41:41;;;;;;;;;;;;;;;;;;7368094;19;758;-65
2023/03/17 05:44:09;;;;;;;;;;;;;;;;;;7366315;19;1270;-65
2023/03/17 05:46:38;;;;;;;;;;;;;;;;;;7369092;19;1947;-65
2023/03/17 05:49:06;;;;;;;;;;;;;;;;;;7367099;19;873;-65
2023/03/17 05:51:34;;;;;;;;;;;;;;;;;;7366727;19;854;-65
2023/03/17 05:54:02;;;;;;;;;;;;;;;;;;7364691;19;1310;-65
2023/03/17 05:56:32;;;;;;;;;;;;;;;;;;7364900;19;1862;-66
2023/03/17 05:59:00;;;;;;;;;;;;;;;;;;7366363;19;870;-65
2023/03/17 06:01:28;;;;;;;;;;;;;;;;;;7364531;19;885;-65
2023/03/17 06:03:57;;;;;;;;;;;;;;;;;;7369920;19;1821;-64
2023/03/17 06:06:25;;;;;;;;;;;;;;;;;;7366731;19;742;-66
2023/03/17 06:08:54;;;;;;;;;;;;;;;;;;7366025;19;852;-64
2023/03/17 06:11:22;;;;;;;;;;;;;;;;;;7366988;19;829;-67
2023/03/17 06:13:50;;;;;;;;;;;;;;;;;;7364932;19;1341;-65
2023/03/17 06:16:18;;;;;;;;;;;;;;;;;;7366041;19;1907;-66
2023/03/17 06:18:47;;;;;;;;;;;;;;;;;;7369038;19;1793;-63
2023/03/17 06:21:15;;;;;;;;;;;;;;;;;;7366195;19;838;-64
2023/03/17 06:23:44;;;;;;;;;;;;;;;;;;7365703;19;1736;-64
2023/03/17 06:26:12;;;;;;;;;;;;;;;;;;7367874;19;874;-65
2023/03/17 06:28:40;;;;;;;;;;;;;;;;;;7366818;19;794;-65
2023/03/17 06:31:08;;;;;;;;;;;;;;;;;;7367601;19;1850;-65
2023/03/17 06:33:37;;;;;;;;;;;;;;;;;;7365679;19;1375;-64
2023/03/17 06:36:05;;;;;;;;;;;;;;;;;;7365607;19;1856;-64
2023/03/17 06:38:33;;;;;;;;;;;;;;;;;;7365546;19;795;-63
2023/03/17 06:41:02;;;;;;;;;;;;;;;;;;7365849;19;780;-64
2023/03/17 06:43:30;;;;;;;;;;;;;;;;;;7365291;19;1901;-65
2023/03/17 06:46:00;;;;;;;;;;;;;;;;;;7366978;19;938;-65
2023/03/17 06:48:28;;;;;;;;;;;;;;;;;;7366029;19;810;-64
2023/03/17 06:50:56;;;;;;;;;;;;;;;;;;7366170;19;807;-65
2023/03/17 06:53:24;;;;;;;;;;;;;;;;;;7365693;19;1270;-65
2023/03/17 06:55:52;;;;;;;;;;;;;;;;;;7365548;19;1842;-65
2023/03/17 06:58:21;;;;;;;;;;;;;;;;;;7365615;19;703;-65
2023/03/17 07:00:52;;;;;;;;;;;;;;;;;;7366398;19;849;-65
2023/03/17 07:03:20;;;;;;;;;;;;;;;;;;7364767;19;1365;-65
2023/03/17 07:05:48;;;;;;;;;;;;;;;;;;7365939;19;776;-65
2023/03/17 07:08:17;;;;;;;;;;;;;;;;;;7367709;19;1775;-66
2023/03/17 07:10:45;;;;;;;;;;;;;;;;;;7365236;19;2113;-65
2023/03/17 07:13:13;;;;;;;;;;;;;;;;;;7362889;19;2175;-65
2023/03/17 07:15:41;;;;;;;;;;;;;;;;;;7365484;19;1854;-66
2023/03/17 07:18:10;;;;;;;;;;;;;;;;;;7364333;19;801;-65
2023/03/17 07:20:38;;;;;;;;;;;;;;;;;;7365427;19;845;-66
2023/03/17 07:23:06;;;;;;;;;;;;;;;;;;7364782;19;1286;-65
2023/03/17 07:25:35;;;;;;;;;;;;;;;;;;7365259;19;850;-66
2023/03/17 07:28:03;;;;;;;;;;;;;;;;;;7365612;19;864;-66
2023/03/17 07:30:32;;;;;;;;;;;;;;;;;;7365230;19;865;-66
2023/03/17 07:33:01;;;;;;;;;;;;;;;;;;7363089;19;1835;-66
2023/03/17 07:35:29;;;;;;;;;;;;;;;;;;7363734;19;862;-65
2023/03/17 07:37:58;;;;;;;;;;;;;;;;;;7361117;19;1849;-66
2023/03/17 07:40:26;;;;;;;;;;;;;;;;;;7366650;19;1863;-65
2023/03/17 07:42:54;;;;;;;;;;;;;;;;;;7365369;19;1345;-65
2023/03/17 07:45:22;;;;;;;;;;;;;;;;;;7365974;19;843;-65
2023/03/17 07:47:50;;;;;;;;;;;;;;;;;;7364637;19;853;-65
2023/03/17 07:50:19;;;;;;;;;;;;;;;;;;7365032;19;904;-65
2023/03/17 07:52:47;;;;;;;;;;;;;;;;;;7364589;19;822;-65
2023/03/17 07:55:15;;;;;;;;;;;;;;;;;;7360960;19;1270;-64
2023/03/17 07:57:43;;;;;;;;;;;;;;;;;;7360892;19;1853;-65
2023/03/17 08:00:12;;;;;;;;;;;;;;;;;;7368017;19;1975;-64
2023/03/17 08:02:40;;;;;;;;;;;;;;;;;;7363000;19;856;-65
2023/03/17 08:05:09;;;;;;;;;;;;;;;;;;7359985;19;1238;-65
2023/03/17 08:07:37;;;;;;;;;;;;;;;;;;7366251;19;2026;-65
2023/03/17 08:10:06;;;;;;;;;;;;;;;;;;7365016;19;1908;-67
2023/03/17 08:12:34;;;;;;;;;;;;;;;;;;7364157;19;2128;-66
2023/03/17 08:15:02;;;;;;;;;;;;;;;;;;7364933;19;1965;-67
2023/03/17 08:17:30;;;;;;;;;;;;;;;;;;7365877;19;1858;-67
2023/03/17 08:19:59;;;;;;;;;;;;;;;;;;7363512;19;815;-67
2023/03/17 08:22:27;;;;;;;;;;;;;;;;;;7364684;19;1675;-68
2023/03/17 08:24:55;;;;;;;;;;;;;;;;;;7364319;19;1270;-65
2023/03/17 08:27:23;;;;;;;;;;;;;;;;;;7370173;19;829;-65
2023/03/17 08:29:51;;;;;;;;;;;;;;;;;;7371063;19;1883;-66
2023/03/17 08:32:19;;;;;;;;;;;;;;;;;;7370135;19;802;-66
2023/03/17 08:34:48;;;;;;;;;;;;;;;;;;7367480;19;1846;-66
2023/03/17 08:37:16;;;;;;;;;;;;;;;;;;7368326;19;1861;-66
2023/03/17 08:39:44;;;;;;;;;;;;;;;;;;7367878;19;836;-67
2023/03/17 08:42:12;;;;;;;;;;;;;;;;;;7371214;19;1798;-67
2023/03/17 08:44:40;;;;;;;;;;;;;;;;;;7368894;19;1949;-65
2023/03/17 08:47:09;;;;;;;;;;;;;;;;;;7369820;19;1697;-65
2023/03/17 08:49:37;;;;;;;;;;;;;;;;;;7366938;19;799;-65
2023/03/17 08:52:05;;;;;;;;;;;;;;;;;;7369467;19;790;-65
2023/03/17 08:54:33;;;;;;;;;;;;;;;;;;7368713;19;1278;-66
2023/03/17 08:57:02;;;;;;;;;;;;;;;;;;7370632;19;1943;-66
2023/03/17 08:59:31;;;;;;;;;;;;;;;;;;7369356;19;889;-66
2023/03/17 09:01:59;;;;;;;;;;;;;;;;;;7369672;19;813;-66
2023/03/17 09:04:27;;;;;;;;;;;;;;;;;;7366366;19;1286;-65
2023/03/17 09:06:56;;;;;;;;;;;;;;;;;;7371058;19;1837;-65
2023/03/17 09:09:25;;;;;;;;;;;;;;;;;;7368081;19;800;-65
2023/03/17 09:11:53;;;;;;;;;;;;;;;;;;7370439;19;1685;-66
2023/03/17 09:14:23;;;;;;;;;;;;;;;;;;7366817;19;1278;-65
2023/03/17 09:16:51;;;;;;;;;;;;;;;;;;7368195;19;1855;-67
2023/03/17 09:19:20;;;;;;;;;;;;;;;;;;7368021;19;880;-68
2023/03/17 09:21:48;;;;;;;;;;;;;;;;;;7368650;19;838;-67
2023/03/17 09:24:16;;;;;;;;;;;;;;;;;;7367440;19;1262;-65
2023/03/17 09:26:45;;;;;;;;;;;;;;;;;;7368545;19;739;-67
2023/03/17 09:29:14;;;;;;;;;;;;;;;;;;7367199;19;832;-65
2023/03/17 09:31:42;;;;;;;;;;;;;;;;;;7368279;19;769;-64
2023/03/17 09:34:10;;;;;;;;;;;;;;;;;;7367359;19;1254;-66
2023/03/17 09:36:39;;;;;;;;;;;;;;;;;;7367030;19;1845;-66
2023/03/17 09:39:07;;;;;;;;;;;;;;;;;;7367323;19;1773;-65
2023/03/17 09:41:36;;;;;;;;;;;;;;;;;;7368552;19;1902;-66
2023/03/17 09:44:04;;;;;;;;;;;;;;;;;;7366401;19;2133;-66
2023/03/17 09:46:32;;;;;;;;;;;;;;;;;;7371493;19;1749;-66
2023/03/17 09:49:00;;;;;;;;;;;;;;;;;;7366216;19;803;-64
2023/03/17 09:51:28;;;;;;;;;;;;;;;;;;7370636;19;1698;-64
2023/03/17 09:53:58;;;;;;;;;;;;;;;;;;7365652;19;1846;-64
2023/03/17 09:56:26;;;;;;;;;;;;;;;;;;7369611;19;1589;-64
2023/03/17 09:58:55;;;;;;;;;;;;;;;;;;7369686;19;1884;-63
2023/03/17 10:01:23;;;;;;;;;;;;;;;;;;7366717;19;842;-65
2023/03/17 10:03:51;;;;;;;;;;;;;;;;;;7365740;19;2150;-65
2023/03/17 10:06:20;;;;;;;;;;;;;;;;;;7367653;19;1879;-65
2023/03/17 10:08:48;;;;;;;;;;;;;;;;;;7370528;19;2106;-65
2023/03/17 10:11:16;;;;;;;;;;;;;;;;;;7366657;19;868;-65
2023/03/17 10:13:45;;;;;;;;;;;;;;;;;;7366444;19;1820;-65
2023/03/17 10:16:13;;;;;;;;;;;;;;;;;;7367871;19;1660;-65
2023/03/17 10:18:42;;;;;;;;;;;;;;;;;;7362282;19;1850;-65
2023/03/17 10:21:10;;;;;;;;;;;;;;;;;;7366188;19;884;-65
2023/03/17 10:23:38;;;;;;;;;;;;;;;;;;7368631;19;1647;-65
2023/03/17 10:26:06;;;;;;;;;;;;;;;;;;7368840;19;1883;-65
2023/03/17 10:28:35;;;;;;;;;;;;;;;;;;7365712;19;858;-66
2023/03/17 10:31:03;;;;;;;;;;;;;;;;;;7366549;19;876;-67
2023/03/17 10:33:32;;;;;;;;;;;;;;;;;;7366958;19;1356;-66
2023/03/17 10:36:00;;;;;;;;;;;;;;;;;;7367196;19;796;-65
2023/03/17 10:38:28;;;;;;;;;;;;;;;;;;7364174;19;1876;-66
2023/03/17 10:40:56;;;;;;;;;;;;;;;;;;7366739;19;819;-66
2023/03/17 10:43:25;;;;;;;;;;;;;;;;;;7366524;19;1369;-64
2023/03/17 10:45:54;;;;;;;;;;;;;;;;;;7367212;19;949;-65
2023/03/17 10:48:22;;;;;;;;;;;;;;;;;;7370297;19;1892;-65
2023/03/17 10:50:50;;;;;;;;;;;;;;;;;;7366410;19;829;-65
2023/03/17 10:53:26;;;;;;;;;;;;;;;;;;7366821;19;2297;-65
2023/03/17 10:55:55;;;;;;;;;;;;;;;;;;7370506;19;1858;-65
2023/03/17 10:58:23;;;;;;;;;;;;;;;;;;7366105;19;1850;-66
2023/03/17 11:00:51;;;;;;;;;;;;;;;;;;7368925;19;1659;-66
2023/03/17 11:03:19;;;;;;;;;;;;;;;;;;7366747;19;1829;-66
2023/03/17 11:05:48;;;;;;;;;;;;;;;;;;7365377;19;823;-65
2023/03/17 11:08:16;;;;;;;;;;;;;;;;;;7364452;19;809;-65
2023/03/17 11:10:44;;;;;;;;;;;;;;;;;;7366176;19;839;-65
2023/03/17 11:13:13;;;;;;;;;;;;;;;;;;7365379;19;1336;-65
2023/03/17 11:15:42;;;;;;;;;;;;;;;;;;7365714;19;823;-65
2023/03/17 11:18:11;;;;;;;;;;;;;;;;;;7362509;19;1841;-64
2023/03/17 11:20:39;;;;;;;;;;;;;;;;;;7364127;19;878;-65
2023/03/17 11:23:07;;;;;;;;;;;;;;;;;;7364403;19;1347;-66
2023/03/17 11:25:35;;;;;;;;;;;;;;;;;;7365506;19;790;-65
2023/03/17 11:28:04;;;;;;;;;;;;;;;;;;7364356;19;816;-66
2023/03/17 11:30:32;;;;;;;;;;;;;;;;;;7363636;19;795;-66
2023/03/17 11:33:00;;;;;;;;;;;;;;;;;;7364346;19;1353;-66
2023/03/17 11:35:29;;;;;;;;;;;;;;;;;;7365077;19;847;-65
2023/03/17 11:37:57;;;;;;;;;;;;;;;;;;7363060;19;2178;-66
2023/03/17 11:40:26;;;;;;;;;;;;;;;;;;7368146;19;1795;-66
2023/03/17 11:42:54;;;;;;;;;;;;;;;;;;7364043;19;1286;-66
2023/03/17 11:45:22;;;;;;;;;;;;;;;;;;7364824;19;716;-65
2023/03/17 11:47:51;;;;;;;;;;;;;;;;;;7363427;19;806;-66
2023/03/17 11:50:19;;;;;;;;;;;;;;;;;;7367745;19;1909;-66
2023/03/17 11:52:47;;;;;;;;;;;;;;;;;;7367398;19;1833;-65
2023/03/17 11:55:16;;;;;;;;;;;;;;;;;;7363731;19;1936;-65
2023/03/17 11:57:44;;;;;;;;;;;;;;;;;;7367360;19;1969;-65
2023/03/17 12:00:14;;;;;;;;;;;;;;;;;;7365703;19;1813;-65
2023/03/17 12:02:43;;;;;;;;;;;;;;;;;;7363837;19;795;-66
2023/03/17 12:05:11;;;;;;;;;;;;;;;;;;7360679;19;1270;-66
2023/03/17 12:07:40;;;;;;;;;;;;;;;;;;7363028;19;775;-66
2023/03/17 12:10:08;;;;;;;;;;;;;;;;;;7363661;19;849;-66
2023/03/17 12:12:37;;;;;;;;;;;;;;;;;;7362290;19;877;-64
2023/03/17 12:15:05;;;;;;;;;;;;;;;;;;7359841;19;1282;-66
2023/03/17 12:17:33;;;;;;;;;;;;;;;;;;7361135;19;1853;-65
2023/03/17 12:20:05;;;;;;;;;;;;;;;;;;7362142;19;994;-65
2023/03/17 12:22:33;;;;;;;;;;;;;;;;;;7362050;19;771;-66
2023/03/17 12:25:01;;;;;;;;;;;;;;;;;;7360558;19;1282;-66
2023/03/17 12:27:29;;;;;;;;;;;;;;;;;;7365306;19;1850;-65
2023/03/17 12:29:57;;;;;;;;;;;;;;;;;;7363356;19;1784;-65
2023/03/17 12:32:26;;;;;;;;;;;;;;;;;;7363200;19;815;-65
2023/03/17 12:34:55;;;;;;;;;;;;;;;;;;7359966;19;1248;-66
2023/03/17 12:37:23;;;;;;;;;;;;;;;;;;7362944;19;1838;-65
2023/03/17 12:39:51;;;;;;;;;;;;;;;;;;7362426;19;791;-65
2023/03/17 12:42:20;;;;;;;;;;;;;;;;;;7362775;19;862;-65
2023/03/17 12:44:48;;;;;;;;;;;;;;;;;;7359461;19;1278;-64
2023/03/17 12:47:16;;;;;;;;;;;;;;;;;;7362487;19;794;-64
2023/03/17 12:49:44;;;;;;;;;;;;;;;;;;7361408;19;839;-64
2023/03/17 12:52:14;;;;;;;;;;;;;;;;;;7361854;19;770;-64
2023/03/17 12:54:43;;;;;;;;;;;;;;;;;;7359805;19;1335;-63
2023/03/17 12:57:11;;;;;;;;;;;;;;;;;;7361134;19;767;-65
2023/03/17 12:59:39;;;;;;;;;;;;;;;;;;7358721;19;1838;-65
2023/03/17 13:02:08;;;;;;;;;;;;;;;;;;7359458;19;964;-65
2023/03/17 13:04:37;;;;;;;;;;;;;;;;;;7359240;19;1294;-65
2023/03/17 13:07:05;;;;;;;;;;;;;;;;;;7362315;19;779;-65
2023/03/17 13:09:33;;;;;;;;;;;;;;;;;;7360830;19;837;-64
2023/03/17 13:12:01;;;;;;;;;;;;;;;;;;7367705;19;775;-65
2023/03/17 13:14:29;;;;;;;;;;;;;;;;;;7366947;19;1359;-64
2023/03/17 13:16:58;;;;;;;;;;;;;;;;;;7368277;19;803;-65
2023/03/17 13:19:27;;;;;;;;;;;;;;;;;;7365365;19;1843;-65
2023/03/17 13:21:55;;;;;;;;;;;;;;;;;;7368766;19;854;-65
2023/03/17 13:24:23;;;;;;;;;;;;;;;;;;7366501;19;1274;-65
2023/03/17 13:26:51;;;;;;;;;;;;;;;;;;7368235;19;795;-65
2023/03/17 13:29:19;;;;;;;;;;;;;;;;;;7367424;19;841;-65
2023/03/17 13:31:48;;;;;;;;;;;;;;;;;;7368129;19;635;-65
2023/03/17 13:34:16;;;;;;;;;;;;;;;;;;7367184;19;1284;-65
2023/03/17 13:36:44;;;;;;;;;;;;;;;;;;7368173;19;778;-65
2023/03/17 13:39:12;;;;;;;;;;;;;;;;;;7365349;19;1846;-65
2023/03/17 13:41:41;;;;;;;;;;;;;;;;;;7367188;19;809;-66
2023/03/17 13:44:09;;;;;;;;;;;;;;;;;;7365255;19;1290;-65
2023/03/17 13:46:37;;;;;;;;;;;;;;;;;;7367572;19;861;-64
2023/03/17 13:49:06;;;;;;;;;;;;;;;;;;7366752;19;838;-64
2023/03/17 13:51:34;;;;;;;;;;;;;;;;;;7367367;19;806;-65
2023/03/17 13:54:02;;;;;;;;;;;;;;;;;;7363395;19;1266;-65
2023/03/17 13:56:30;;;;;;;;;;;;;;;;;;7367555;19;798;-65
2023/03/17 13:58:58;;;;;;;;;;;;;;;;;;7365424;19;1857;-65
2023/03/17 14:01:26;;;;;;;;;;;;;;;;;;7366433;19;842;-65
2023/03/17 14:03:55;;;;;;;;;;;;;;;;;;7366281;19;1265;-64
2023/03/17 14:06:25;;;;;;;;;;;;;;;;;;7367184;19;822;-64
2023/03/17 14:08:53;;;;;;;;;;;;;;;;;;7365806;19;792;-65
2023/03/17 14:11:22;;;;;;;;;;;;;;;;;;7366978;19;839;-65
2023/03/17 14:13:51;;;;;;;;;;;;;;;;;;7366212;19;1353;-64
2023/03/17 14:16:19;;;;;;;;;;;;;;;;;;7367232;19;1207;-65
2023/03/17 14:18:48;;;;;;;;;;;;;;;;;;7365122;19;1833;-65
2023/03/17 14:21:16;;;;;;;;;;;;;;;;;;7366509;19;790;-65
2023/03/17 14:23:44;;;;;;;;;;;;;;;;;;7363623;19;1364;-66
2023/03/17 14:26:13;;;;;;;;;;;;;;;;;;7367272;19;774;-64
2023/03/17 14:28:41;;;;;;;;;;;;;;;;;;7364880;19;834;-65
2023/03/17 14:31:09;;;;;;;;;;;;;;;;;;7365643;19;857;-65
2023/03/17 14:33:37;;;;;;;;;;;;;;;;;;7364292;19;1282;-65
2023/03/17 14:36:05;;;;;;;;;;;;;;;;;;7366275;19;863;-64
2023/03/17 14:38:33;;;;;;;;;;;;;;;;;;7364009;19;1888;-64
2023/03/17 14:41:03;;;;;;;;;;;;;;;;;;7366169;19;760;-64
2023/03/17 14:43:31;;;;;;;;;;;;;;;;;;7366114;19;1298;-64
2023/03/17 14:46:00;;;;;;;;;;;;;;;;;;7366932;19;697;-64
2023/03/17 14:48:28;;;;;;;;;;;;;;;;;;7366114;19;897;-65
2023/03/17 14:50:58;;;;;;;;;;;;;;;;;;7367116;19;805;-65
2023/03/17 14:53:26;;;;;;;;;;;;;;;;;;7366310;19;1374;-65
2023/03/17 14:55:55;;;;;;;;;;;;;;;;;;7366732;19;762;-66
2023/03/17 14:58:23;;;;;;;;;;;;;;;;;;7365092;19;1847;-65
2023/03/17 15:00:51;;;;;;;;;;;;;;;;;;7366084;19;818;-65
2023/03/17 15:03:19;;;;;;;;;;;;;;;;;;7364955;19;1349;-65
2023/03/17 15:05:48;;;;;;;;;;;;;;;;;;7365382;19;778;-64
2023/03/17 15:08:16;;;;;;;;;;;;;;;;;;7365639;19;857;-64
2023/03/17 15:10:46;;;;;;;;;;;;;;;;;;7366105;19;790;-65
2023/03/17 15:13:14;;;;;;;;;;;;;;;;;;7364370;19;1337;-65
2023/03/17 15:15:43;;;;;;;;;;;;;;;;;;7366443;19;794;-65
2023/03/17 15:18:11;;;;;;;;;;;;;;;;;;7364760;19;1837;-66
2023/03/17 15:20:39;;;;;;;;;;;;;;;;;;7365690;19;842;-66
2023/03/17 15:23:07;;;;;;;;;;;;;;;;;;7365545;19;1285;-66
2023/03/17 15:25:36;;;;;;;;;;;;;;;;;;7366585;19;809;-65
2023/03/17 15:28:04;;;;;;;;;;;;;;;;;;7364472;19;812;-64
2023/03/17 15:30:32;;;;;;;;;;;;;;;;;;7364713;19;842;-64
2023/03/17 15:33:00;;;;;;;;;;;;;;;;;;7362526;19;1346;-65
2023/03/17 15:35:28;;;;;;;;;;;;;;;;;;7364658;19;861;-66
2023/03/17 15:37:57;;;;;;;;;;;;;;;;;;7363984;19;810;-65
2023/03/17 15:40:25;;;;;;;;;;;;;;;;;;7362091;19;1843;-66
2023/03/17 15:42:53;;;;;;;;;;;;;;;;;;7365192;19;866;-65
2023/03/17 15:45:21;;;;;;;;;;;;;;;;;;7364740;19;806;-64
2023/03/17 15:47:49;;;;;;;;;;;;;;;;;;7363407;19;849;-65
2023/03/17 15:50:17;;;;;;;;;;;;;;;;;;7363601;19;811;-65
2023/03/17 15:52:46;;;;;;;;;;;;;;;;;;7361113;19;797;-65
2023/03/17 15:55:14;;;;;;;;;;;;;;;;;;7361265;19;1231;-65
2023/03/17 15:57:43;;;;;;;;;;;;;;;;;;7363439;19;844;-66
2023/03/17 16:00:11;;;;;;;;;;;;;;;;;;7361016;19;1860;-65
2023/03/17 16:02:40;;;;;;;;;;;;;;;;;;7363934;19;793;-65
2023/03/17 16:05:09;;;;;;;;;;;;;;;;;;7360689;19;1367;-65
2023/03/17 16:07:38;;;;;;;;;;;;;;;;;;7362945;19;865;-65
2023/03/17 16:10:06;;;;;;;;;;;;;;;;;;7364528;19;758;-65
2023/03/17 16:12:34;;;;;;;;;;;;;;;;;;7368160;19;740;-65
2023/03/17 16:15:02;;;;;;;;;;;;;;;;;;7360497;19;1282;-65
2023/03/17 16:17:31;;;;;;;;;;;;;;;;;;7366764;19;1788;-65
2023/03/17 16:19:59;;;;;;;;;;;;;;;;;;7362104;19;1891;-66
2023/03/17 16:22:27;;;;;;;;;;;;;;;;;;7366509;19;1917;-65
2023/03/17 16:24:55;;;;;;;;;;;;;;;;;;7364563;19;1895;-65
2023/03/17 16:27:23;;;;;;;;;;;;;;;;;;7361995;19;801;-65
2023/03/17 16:29:52;;;;;;;;;;;;;;;;;;7362342;19;865;-66
2023/03/17 16:32:20;;;;;;;;;;;;;;;;;;7363255;19;866;-65
2023/03/17 16:34:48;;;;;;;;;;;;;;;;;;7360900;19;1284;-65
2023/03/17 16:37:16;;;;;;;;;;;;;;;;;;7363258;19;767;-65
2023/03/17 16:39:44;;;;;;;;;;;;;;;;;;7360348;19;1845;-64
2023/03/17 16:42:12;;;;;;;;;;;;;;;;;;7362142;19;890;-65
2023/03/17 16:44:41;;;;;;;;;;;;;;;;;;7360490;19;1282;-65
2023/03/17 16:47:09;;;;;;;;;;;;;;;;;;7369291;19;862;-65
2023/03/17 16:49:37;;;;;;;;;;;;;;;;;;7368749;19;834;-65
2023/03/17 16:52:06;;;;;;;;;;;;;;;;;;7369057;19;850;-65
2023/03/17 16:54:34;;;;;;;;;;;;;;;;;;7368979;19;1866;-65
2023/03/17 16:57:03;;;;;;;;;;;;;;;;;;7369237;19;889;-65
2023/03/17 16:59:32;;;;;;;;;;;;;;;;;;7366719;19;1849;-65
2023/03/17 17:02:00;;;;;;;;;;;;;;;;;;7367422;19;884;-66
2023/03/17 17:04:30;;;;;;;;;;;;;;;;;;7366379;19;1302;-65
2023/03/17 17:06:58;;;;;;;;;;;;;;;;;;7367699;19;1501;-64
2023/03/17 17:09:26;;;;;;;;;;;;;;;;;;7371729;19;1907;-65
2023/03/17 17:11:55;;;;;;;;;;;;;;;;;;7368209;19;1867;-64
2023/03/17 17:14:23;;;;;;;;;;;;;;;;;;7366353;19;1474;-64
2023/03/17 17:16:52;;;;;;;;;;;;;;;;;;7367160;19;806;-64
2023/03/17 17:19:20;;;;;;;;;;;;;;;;;;7367324;19;1855;-64